Аэропорт: Уфа. Уфа

ICAO: UWUU

METAR:
2019-07-23 18:30:00
UWUU 231830Z 28003MPS 9999 SCT040 17/13 Q1013 R32L/0///60 NOSIG
METAR:
2019-07-23 17:01:00
TAF UWUU 231701Z 2318/2418 28003G08MPS 9999 SCT040 TEMPO 2318/2403 30003MPS 3100 BR SCT011 TEMPO 2403/2418 34006G12MPS 3100 -SHRA BKN011CB